X  Zatvori METAR Podaci o vazduhoplovstvu     LYNI Nis Airport
Temperatura
3°C Temperatura
0°C Tačka Rose
81% Vlaga



Vetar
3 KM/H
2 MPH
1 M/S
2 KTS



40°
SI
Trenutna situacija

Pretežno oblačno Pretežno oblačno
Vazdušni pritisak 1020.92 (hPa) - 30.15 (inHg)
Vidljivost 6.2 (Milja) - 10 (km)
Aerodrom
Aerodromski kod. LYNI

Lokacija: Nis Airport
Udaljenost: 63 (km)

Metar:
LYNI 020000Z 04002KT 9999 BKN017 BKN030 03/00 Q1021 NOSIG

Vreme: 02-12-2022 01:00 CET